sensor_id;sensor_type;location;lat;lon;timestamp;P1;durP1;ratioP1;P2;durP2;ratioP2
2404;SDS011;1213;43.206;27.922;2024-02-23T00:01:06;26.10;;;16.83;;
2404;SDS011;1213;43.206;27.922;2024-02-23T00:03:32;22.77;;;14.37;;
2404;SDS011;1213;43.206;27.922;2024-02-23T00:05:59;32.10;;;16.23;;
2404;SDS011;1213;43.206;27.922;2024-02-23T00:08:26;24.30;;;15.30;;
2404;SDS011;1213;43.206;27.922;2024-02-23T00:10:52;26.97;;;16.30;;
2404;SDS011;1213;43.206;27.922;2024-02-23T00:13:17;21.40;;;15.17;;
2404;SDS011;1213;43.206;27.922;2024-02-23T00:15:42;24.47;;;14.80;;
2404;SDS011;1213;43.206;27.922;2024-02-23T00:18:09;21.20;;;15.70;;
2404;SDS011;1213;43.206;27.922;2024-02-23T00:20:38;21.47;;;13.33;;
2404;SDS011;1213;43.206;27.922;2024-02-23T00:23:03;21.10;;;15.17;;
2404;SDS011;1213;43.206;27.922;2024-02-23T00:25:29;23.03;;;16.17;;
2404;SDS011;1213;43.206;27.922;2024-02-23T00:27:54;27.47;;;15.60;;
2404;SDS011;1213;43.206;27.922;2024-02-23T00:30:19;23.47;;;15.30;;
2404;SDS011;1213;43.206;27.922;2024-02-23T00:32:45;21.20;;;14.90;;
2404;SDS011;1213;43.206;27.922;2024-02-23T00:35:10;24.70;;;14.83;;
2404;SDS011;1213;43.206;27.922;2024-02-23T00:37:36;22.83;;;15.30;;
2404;SDS011;1213;43.206;27.922;2024-02-23T00:40:04;22.10;;;15.37;;
2404;SDS011;1213;43.206;27.922;2024-02-23T00:42:30;24.50;;;16.83;;
2404;SDS011;1213;43.206;27.922;2024-02-23T00:44:56;22.77;;;15.47;;
2404;SDS011;1213;43.206;27.922;2024-02-23T00:47:22;23.40;;;15.67;;
2404;SDS011;1213;43.206;27.922;2024-02-23T00:49:47;24.87;;;16.40;;
2404;SDS011;1213;43.206;27.922;2024-02-23T00:52:12;25.60;;;16.37;;
2404;SDS011;1213;43.206;27.922;2024-02-23T00:54:38;25.43;;;15.00;;
2404;SDS011;1213;43.206;27.922;2024-02-23T00:57:03;26.90;;;15.97;;
2404;SDS011;1213;43.206;27.922;2024-02-23T00:59:29;23.30;;;15.80;;
2404;SDS011;1213;43.206;27.922;2024-02-23T01:01:54;22.80;;;15.20;;
2404;SDS011;1213;43.206;27.922;2024-02-23T01:04:21;25.60;;;16.23;;
2404;SDS011;1213;43.206;27.922;2024-02-23T01:06:46;22.97;;;15.53;;
2404;SDS011;1213;43.206;27.922;2024-02-23T01:09:11;26.80;;;16.40;;
2404;SDS011;1213;43.206;27.922;2024-02-23T01:11:38;26.80;;;17.43;;
2404;SDS011;1213;43.206;27.922;2024-02-23T01:14:03;21.47;;;15.30;;
2404;SDS011;1213;43.206;27.922;2024-02-23T01:16:29;25.13;;;16.30;;
2404;SDS011;1213;43.206;27.922;2024-02-23T01:18:55;25.27;;;16.57;;
2404;SDS011;1213;43.206;27.922;2024-02-23T01:21:20;26.83;;;15.17;;
2404;SDS011;1213;43.206;27.922;2024-02-23T01:23:45;26.17;;;18.27;;
2404;SDS011;1213;43.206;27.922;2024-02-23T01:26:11;24.03;;;16.60;;
2404;SDS011;1213;43.206;27.922;2024-02-23T01:28:36;28.83;;;18.53;;
2404;SDS011;1213;43.206;27.922;2024-02-23T01:31:02;27.47;;;17.20;;
2404;SDS011;1213;43.206;27.922;2024-02-23T01:33:29;37.83;;;31.77;;
2404;SDS011;1213;43.206;27.922;2024-02-23T01:35:54;36.23;;;21.40;;
2404;SDS011;1213;43.206;27.922;2024-02-23T01:38:21;31.07;;;19.90;;
2404;SDS011;1213;43.206;27.922;2024-02-23T01:40:50;28.93;;;17.80;;
2404;SDS011;1213;43.206;27.922;2024-02-23T01:43:15;25.70;;;18.30;;
2404;SDS011;1213;43.206;27.922;2024-02-23T01:45:40;25.73;;;17.60;;
2404;SDS011;1213;43.206;27.922;2024-02-23T01:48:06;34.03;;;16.93;;
2404;SDS011;1213;43.206;27.922;2024-02-23T01:50:34;22.50;;;16.60;;
2404;SDS011;1213;43.206;27.922;2024-02-23T01:53:01;20.80;;;15.10;;
2404;SDS011;1213;43.206;27.922;2024-02-23T01:55:27;26.17;;;15.70;;
2404;SDS011;1213;43.206;27.922;2024-02-23T01:57:53;23.00;;;15.50;;
2404;SDS011;1213;43.206;27.922;2024-02-23T02:00:20;23.60;;;16.40;;
2404;SDS011;1213;43.206;27.922;2024-02-23T02:02:46;23.03;;;15.23;;
2404;SDS011;1213;43.206;27.922;2024-02-23T02:05:13;23.20;;;15.40;;
2404;SDS011;1213;43.206;27.922;2024-02-23T02:07:40;21.13;;;15.13;;
2404;SDS011;1213;43.206;27.922;2024-02-23T02:10:06;20.70;;;14.97;;
2404;SDS011;1213;43.206;27.922;2024-02-23T02:12:34;24.57;;;15.13;;
2404;SDS011;1213;43.206;27.922;2024-02-23T02:14:59;21.47;;;14.80;;
2404;SDS011;1213;43.206;27.922;2024-02-23T02:17:27;24.03;;;15.97;;
2404;SDS011;1213;43.206;27.922;2024-02-23T02:19:52;21.50;;;15.03;;
2404;SDS011;1213;43.206;27.922;2024-02-23T02:22:18;21.50;;;14.87;;
2404;SDS011;1213;43.206;27.922;2024-02-23T02:24:44;24.60;;;16.00;;
2404;SDS011;1213;43.206;27.922;2024-02-23T02:27:13;21.37;;;16.13;;
2404;SDS011;1213;43.206;27.922;2024-02-23T02:29:39;21.10;;;15.03;;
2404;SDS011;1213;43.206;27.922;2024-02-23T02:32:04;23.37;;;16.70;;
2404;SDS011;1213;43.206;27.922;2024-02-23T02:34:30;29.50;;;16.03;;
2404;SDS011;1213;43.206;27.922;2024-02-23T02:36:55;25.13;;;16.70;;
2404;SDS011;1213;43.206;27.922;2024-02-23T02:39:21;26.60;;;15.90;;
2404;SDS011;1213;43.206;27.922;2024-02-23T02:41:49;25.23;;;16.03;;
2404;SDS011;1213;43.206;27.922;2024-02-23T02:44:15;22.80;;;16.10;;
2404;SDS011;1213;43.206;27.922;2024-02-23T02:46:41;24.33;;;16.50;;
2404;SDS011;1213;43.206;27.922;2024-02-23T02:49:07;25.00;;;16.47;;
2404;SDS011;1213;43.206;27.922;2024-02-23T02:51:33;25.63;;;16.10;;
2404;SDS011;1213;43.206;27.922;2024-02-23T02:53:59;23.83;;;15.77;;
2404;SDS011;1213;43.206;27.922;2024-02-23T02:56:24;21.50;;;14.73;;
2404;SDS011;1213;43.206;27.922;2024-02-23T02:58:50;23.80;;;15.23;;
2404;SDS011;1213;43.206;27.922;2024-02-23T03:01:15;23.60;;;16.80;;
2404;SDS011;1213;43.206;27.922;2024-02-23T03:03:40;21.50;;;15.20;;
2404;SDS011;1213;43.206;27.922;2024-02-23T03:06:06;26.33;;;14.93;;
2404;SDS011;1213;43.206;27.922;2024-02-23T03:08:32;24.83;;;14.70;;
2404;SDS011;1213;43.206;27.922;2024-02-23T03:10:58;23.10;;;15.17;;
2404;SDS011;1213;43.206;27.922;2024-02-23T03:13:23;24.63;;;16.30;;
2404;SDS011;1213;43.206;27.922;2024-02-23T03:15:49;24.03;;;15.60;;
2404;SDS011;1213;43.206;27.922;2024-02-23T03:18:15;23.67;;;15.87;;
2404;SDS011;1213;43.206;27.922;2024-02-23T03:20:41;23.20;;;15.50;;
2404;SDS011;1213;43.206;27.922;2024-02-23T03:23:07;23.70;;;15.10;;
2404;SDS011;1213;43.206;27.922;2024-02-23T03:25:32;25.77;;;16.97;;
2404;SDS011;1213;43.206;27.922;2024-02-23T03:27:58;28.73;;;17.23;;
2404;SDS011;1213;43.206;27.922;2024-02-23T03:30:23;29.77;;;19.13;;
2404;SDS011;1213;43.206;27.922;2024-02-23T03:32:49;25.73;;;15.90;;
2404;SDS011;1213;43.206;27.922;2024-02-23T03:35:14;25.57;;;18.07;;
2404;SDS011;1213;43.206;27.922;2024-02-23T03:37:40;26.47;;;17.53;;
2404;SDS011;1213;43.206;27.922;2024-02-23T03:40:05;29.57;;;17.20;;
2404;SDS011;1213;43.206;27.922;2024-02-23T03:42:31;27.83;;;18.70;;
2404;SDS011;1213;43.206;27.922;2024-02-23T03:44:57;24.53;;;17.00;;
2404;SDS011;1213;43.206;27.922;2024-02-23T03:47:23;21.57;;;15.30;;
2404;SDS011;1213;43.206;27.922;2024-02-23T03:49:48;29.43;;;16.57;;
2404;SDS011;1213;43.206;27.922;2024-02-23T03:52:13;22.50;;;15.43;;
2404;SDS011;1213;43.206;27.922;2024-02-23T03:54:39;26.40;;;16.70;;
2404;SDS011;1213;43.206;27.922;2024-02-23T03:57:04;29.00;;;16.90;;
2404;SDS011;1213;43.206;27.922;2024-02-23T03:59:30;35.73;;;18.73;;
2404;SDS011;1213;43.206;27.922;2024-02-23T04:01:55;32.33;;;18.17;;
2404;SDS011;1213;43.206;27.922;2024-02-23T04:04:21;26.47;;;16.87;;
2404;SDS011;1213;43.206;27.922;2024-02-23T04:06:46;27.50;;;17.23;;
2404;SDS011;1213;43.206;27.922;2024-02-23T04:09:12;26.97;;;17.53;;
2404;SDS011;1213;43.206;27.922;2024-02-23T04:11:37;29.27;;;18.70;;
2404;SDS011;1213;43.206;27.922;2024-02-23T04:14:03;28.00;;;17.20;;
2404;SDS011;1213;43.206;27.922;2024-02-23T04:16:30;27.97;;;17.33;;
2404;SDS011;1213;43.206;27.922;2024-02-23T04:18:57;28.37;;;17.37;;
2404;SDS011;1213;43.206;27.922;2024-02-23T04:21:22;30.03;;;17.03;;
2404;SDS011;1213;43.206;27.922;2024-02-23T04:23:48;26.83;;;18.43;;
2404;SDS011;1213;43.206;27.922;2024-02-23T04:26:13;27.70;;;17.57;;
2404;SDS011;1213;43.206;27.922;2024-02-23T04:28:39;28.23;;;17.80;;
2404;SDS011;1213;43.206;27.922;2024-02-23T04:31:05;29.37;;;19.20;;
2404;SDS011;1213;43.206;27.922;2024-02-23T04:33:31;29.70;;;17.60;;
2404;SDS011;1213;43.206;27.922;2024-02-23T04:35:58;30.03;;;19.53;;
2404;SDS011;1213;43.206;27.922;2024-02-23T04:38:23;29.40;;;18.63;;
2404;SDS011;1213;43.206;27.922;2024-02-23T04:40:49;31.93;;;19.07;;
2404;SDS011;1213;43.206;27.922;2024-02-23T04:43:14;34.40;;;20.27;;
2404;SDS011;1213;43.206;27.922;2024-02-23T04:45:40;32.27;;;19.97;;
2404;SDS011;1213;43.206;27.922;2024-02-23T04:48:05;37.00;;;19.63;;
2404;SDS011;1213;43.206;27.922;2024-02-23T04:50:31;34.07;;;19.90;;
2404;SDS011;1213;43.206;27.922;2024-02-23T04:52:57;33.73;;;20.27;;
2404;SDS011;1213;43.206;27.922;2024-02-23T04:55:22;39.20;;;19.70;;
2404;SDS011;1213;43.206;27.922;2024-02-23T04:57:47;30.30;;;19.77;;
2404;SDS011;1213;43.206;27.922;2024-02-23T05:00:13;31.13;;;19.30;;
2404;SDS011;1213;43.206;27.922;2024-02-23T05:02:39;30.27;;;19.50;;
2404;SDS011;1213;43.206;27.922;2024-02-23T05:05:04;33.80;;;21.07;;
2404;SDS011;1213;43.206;27.922;2024-02-23T05:07:30;35.63;;;20.70;;
2404;SDS011;1213;43.206;27.922;2024-02-23T05:09:57;37.10;;;20.83;;
2404;SDS011;1213;43.206;27.922;2024-02-23T05:12:22;42.70;;;21.70;;
2404;SDS011;1213;43.206;27.922;2024-02-23T05:14:47;32.83;;;22.67;;
2404;SDS011;1213;43.206;27.922;2024-02-23T05:17:13;32.87;;;19.93;;
2404;SDS011;1213;43.206;27.922;2024-02-23T05:19:39;37.00;;;21.13;;
2404;SDS011;1213;43.206;27.922;2024-02-23T05:22:04;34.80;;;21.80;;
2404;SDS011;1213;43.206;27.922;2024-02-23T05:24:30;35.33;;;20.33;;
2404;SDS011;1213;43.206;27.922;2024-02-23T05:26:55;36.63;;;22.27;;
2404;SDS011;1213;43.206;27.922;2024-02-23T05:29:23;35.80;;;21.73;;
2404;SDS011;1213;43.206;27.922;2024-02-23T05:31:52;32.73;;;21.20;;
2404;SDS011;1213;43.206;27.922;2024-02-23T05:34:18;32.83;;;20.87;;
2404;SDS011;1213;43.206;27.922;2024-02-23T05:36:44;49.80;;;21.60;;
2404;SDS011;1213;43.206;27.922;2024-02-23T05:39:11;46.83;;;23.17;;
2404;SDS011;1213;43.206;27.922;2024-02-23T05:41:38;50.93;;;23.93;;
2404;SDS011;1213;43.206;27.922;2024-02-23T05:44:05;34.13;;;21.63;;
2404;SDS011;1213;43.206;27.922;2024-02-23T05:46:34;40.63;;;23.83;;
2404;SDS011;1213;43.206;27.922;2024-02-23T05:49:00;34.20;;;21.50;;
2404;SDS011;1213;43.206;27.922;2024-02-23T05:51:27;32.00;;;21.80;;
2404;SDS011;1213;43.206;27.922;2024-02-23T05:53:54;26.40;;;17.87;;
2404;SDS011;1213;43.206;27.922;2024-02-23T05:56:20;31.63;;;20.03;;
2404;SDS011;1213;43.206;27.922;2024-02-23T05:58:46;28.50;;;17.67;;
2404;SDS011;1213;43.206;27.922;2024-02-23T06:01:12;32.30;;;17.87;;
2404;SDS011;1213;43.206;27.922;2024-02-23T06:03:38;33.87;;;18.10;;
2404;SDS011;1213;43.206;27.922;2024-02-23T06:06:08;30.10;;;18.80;;
2404;SDS011;1213;43.206;27.922;2024-02-23T06:08:33;25.83;;;17.70;;
2404;SDS011;1213;43.206;27.922;2024-02-23T06:10:59;31.23;;;18.60;;
2404;SDS011;1213;43.206;27.922;2024-02-23T06:13:26;26.67;;;17.10;;
2404;SDS011;1213;43.206;27.922;2024-02-23T06:15:51;24.43;;;16.23;;
2404;SDS011;1213;43.206;27.922;2024-02-23T06:18:17;26.70;;;16.13;;
2404;SDS011;1213;43.206;27.922;2024-02-23T06:20:42;24.10;;;16.07;;
2404;SDS011;1213;43.206;27.922;2024-02-23T06:23:11;25.47;;;16.53;;
2404;SDS011;1213;43.206;27.922;2024-02-23T06:25:36;24.27;;;16.27;;
2404;SDS011;1213;43.206;27.922;2024-02-23T06:28:03;26.00;;;16.50;;
2404;SDS011;1213;43.206;27.922;2024-02-23T06:30:28;22.77;;;15.90;;
2404;SDS011;1213;43.206;27.922;2024-02-23T06:32:54;24.20;;;15.47;;
2404;SDS011;1213;43.206;27.922;2024-02-23T06:35:19;30.03;;;22.20;;
2404;SDS011;1213;43.206;27.922;2024-02-23T06:37:47;23.90;;;16.07;;
2404;SDS011;1213;43.206;27.922;2024-02-23T06:40:12;20.23;;;15.00;;
2404;SDS011;1213;43.206;27.922;2024-02-23T06:42:38;31.93;;;15.50;;
2404;SDS011;1213;43.206;27.922;2024-02-23T06:45:03;27.37;;;14.67;;
2404;SDS011;1213;43.206;27.922;2024-02-23T06:47:29;21.10;;;15.57;;
2404;SDS011;1213;43.206;27.922;2024-02-23T06:49:54;25.03;;;14.80;;
2404;SDS011;1213;43.206;27.922;2024-02-23T06:52:20;20.40;;;14.43;;
2404;SDS011;1213;43.206;27.922;2024-02-23T06:54:45;26.70;;;15.27;;
2404;SDS011;1213;43.206;27.922;2024-02-23T06:57:10;28.30;;;15.17;;
2404;SDS011;1213;43.206;27.922;2024-02-23T06:59:36;19.90;;;13.57;;
2404;SDS011;1213;43.206;27.922;2024-02-23T07:02:01;19.23;;;13.83;;
2404;SDS011;1213;43.206;27.922;2024-02-23T07:04:27;28.07;;;15.43;;
2404;SDS011;1213;43.206;27.922;2024-02-23T07:06:54;23.87;;;16.00;;
2404;SDS011;1213;43.206;27.922;2024-02-23T07:09:20;32.30;;;15.00;;
2404;SDS011;1213;43.206;27.922;2024-02-23T07:11:46;23.83;;;15.30;;
2404;SDS011;1213;43.206;27.922;2024-02-23T07:14:12;21.37;;;14.10;;
2404;SDS011;1213;43.206;27.922;2024-02-23T07:16:39;21.57;;;15.43;;
2404;SDS011;1213;43.206;27.922;2024-02-23T07:19:05;23.67;;;14.40;;
2404;SDS011;1213;43.206;27.922;2024-02-23T07:21:32;28.27;;;15.80;;
2404;SDS011;1213;43.206;27.922;2024-02-23T07:23:57;19.67;;;15.00;;
2404;SDS011;1213;43.206;27.922;2024-02-23T07:26:23;21.17;;;14.10;;
2404;SDS011;1213;43.206;27.922;2024-02-23T07:28:48;22.10;;;14.00;;
2404;SDS011;1213;43.206;27.922;2024-02-23T07:31:16;24.83;;;15.13;;
2404;SDS011;1213;43.206;27.922;2024-02-23T07:33:42;19.43;;;13.80;;
2404;SDS011;1213;43.206;27.922;2024-02-23T07:36:13;21.13;;;14.80;;
2404;SDS011;1213;43.206;27.922;2024-02-23T07:38:39;25.87;;;16.60;;
2404;SDS011;1213;43.206;27.922;2024-02-23T07:41:04;26.23;;;16.03;;
2404;SDS011;1213;43.206;27.922;2024-02-23T07:43:30;22.37;;;14.90;;
2404;SDS011;1213;43.206;27.922;2024-02-23T07:45:55;22.30;;;15.40;;
2404;SDS011;1213;43.206;27.922;2024-02-23T07:48:21;24.50;;;15.77;;
2404;SDS011;1213;43.206;27.922;2024-02-23T07:50:46;23.40;;;14.63;;
2404;SDS011;1213;43.206;27.922;2024-02-23T07:53:12;20.33;;;14.77;;
2404;SDS011;1213;43.206;27.922;2024-02-23T07:55:37;29.33;;;16.10;;
2404;SDS011;1213;43.206;27.922;2024-02-23T07:58:03;26.27;;;15.43;;
2404;SDS011;1213;43.206;27.922;2024-02-23T08:00:28;21.70;;;15.53;;
2404;SDS011;1213;43.206;27.922;2024-02-23T08:02:54;20.73;;;14.67;;
2404;SDS011;1213;43.206;27.922;2024-02-23T08:05:22;21.80;;;15.40;;
2404;SDS011;1213;43.206;27.922;2024-02-23T08:07:48;28.37;;;16.20;;
2404;SDS011;1213;43.206;27.922;2024-02-23T08:10:14;21.80;;;14.20;;
2404;SDS011;1213;43.206;27.922;2024-02-23T08:12:39;23.73;;;16.23;;
2404;SDS011;1213;43.206;27.922;2024-02-23T08:15:05;29.13;;;15.07;;
2404;SDS011;1213;43.206;27.922;2024-02-23T08:17:31;23.30;;;14.63;;
2404;SDS011;1213;43.206;27.922;2024-02-23T08:19:57;21.60;;;16.50;;
2404;SDS011;1213;43.206;27.922;2024-02-23T08:22:22;22.60;;;15.77;;
2404;SDS011;1213;43.206;27.922;2024-02-23T08:24:48;26.57;;;16.20;;
2404;SDS011;1213;43.206;27.922;2024-02-23T08:27:14;25.13;;;14.90;;
2404;SDS011;1213;43.206;27.922;2024-02-23T08:29:39;23.27;;;14.37;;
2404;SDS011;1213;43.206;27.922;2024-02-23T08:32:05;22.13;;;14.20;;
2404;SDS011;1213;43.206;27.922;2024-02-23T08:34:31;21.70;;;15.50;;
2404;SDS011;1213;43.206;27.922;2024-02-23T08:36:56;21.13;;;15.70;;
2404;SDS011;1213;43.206;27.922;2024-02-23T08:39:22;22.60;;;14.60;;
2404;SDS011;1213;43.206;27.922;2024-02-23T08:41:47;22.20;;;14.50;;
2404;SDS011;1213;43.206;27.922;2024-02-23T08:44:13;20.50;;;14.03;;
2404;SDS011;1213;43.206;27.922;2024-02-23T08:46:39;19.00;;;14.13;;
2404;SDS011;1213;43.206;27.922;2024-02-23T08:49:05;20.33;;;14.50;;
2404;SDS011;1213;43.206;27.922;2024-02-23T08:51:30;19.97;;;14.27;;
2404;SDS011;1213;43.206;27.922;2024-02-23T08:53:56;20.50;;;14.73;;
2404;SDS011;1213;43.206;27.922;2024-02-23T08:56:22;21.00;;;16.73;;
2404;SDS011;1213;43.206;27.922;2024-02-23T08:58:50;19.87;;;14.20;;
2404;SDS011;1213;43.206;27.922;2024-02-23T09:01:16;18.30;;;13.97;;
2404;SDS011;1213;43.206;27.922;2024-02-23T09:03:41;23.97;;;15.57;;
2404;SDS011;1213;43.206;27.922;2024-02-23T09:06:07;21.60;;;14.97;;
2404;SDS011;1213;43.206;27.922;2024-02-23T09:08:33;20.57;;;14.93;;
2404;SDS011;1213;43.206;27.922;2024-02-23T09:10:59;22.40;;;14.73;;
2404;SDS011;1213;43.206;27.922;2024-02-23T09:13:24;19.87;;;13.77;;
2404;SDS011;1213;43.206;27.922;2024-02-23T09:15:51;19.37;;;14.47;;
2404;SDS011;1213;43.206;27.922;2024-02-23T09:18:16;20.43;;;14.40;;
2404;SDS011;1213;43.206;27.922;2024-02-23T09:20:43;18.30;;;14.07;;
2404;SDS011;1213;43.206;27.922;2024-02-23T09:23:09;26.17;;;15.27;;
2404;SDS011;1213;43.206;27.922;2024-02-23T09:25:34;24.70;;;14.10;;
2404;SDS011;1213;43.206;27.922;2024-02-23T09:27:59;22.87;;;13.63;;
2404;SDS011;1213;43.206;27.922;2024-02-23T09:30:25;22.23;;;14.90;;
2404;SDS011;1213;43.206;27.922;2024-02-23T09:32:50;23.73;;;14.00;;
2404;SDS011;1213;43.206;27.922;2024-02-23T09:35:16;23.97;;;14.30;;
2404;SDS011;1213;43.206;27.922;2024-02-23T09:37:41;17.10;;;13.93;;
2404;SDS011;1213;43.206;27.922;2024-02-23T09:40:07;17.73;;;13.60;;
2404;SDS011;1213;43.206;27.922;2024-02-23T09:42:33;17.27;;;14.37;;
2404;SDS011;1213;43.206;27.922;2024-02-23T09:44:59;18.87;;;13.10;;
2404;SDS011;1213;43.206;27.922;2024-02-23T09:47:26;25.90;;;18.80;;
2404;SDS011;1213;43.206;27.922;2024-02-23T09:49:53;21.07;;;13.73;;
2404;SDS011;1213;43.206;27.922;2024-02-23T09:52:19;18.10;;;12.77;;
2404;SDS011;1213;43.206;27.922;2024-02-23T09:54:46;20.50;;;14.30;;
2404;SDS011;1213;43.206;27.922;2024-02-23T09:57:12;19.70;;;13.87;;
2404;SDS011;1213;43.206;27.922;2024-02-23T09:59:39;16.20;;;12.97;;
2404;SDS011;1213;43.206;27.922;2024-02-23T10:02:09;21.60;;;13.60;;
2404;SDS011;1213;43.206;27.922;2024-02-23T10:04:39;17.30;;;12.37;;
2404;SDS011;1213;43.206;27.922;2024-02-23T10:07:06;18.53;;;12.83;;
2404;SDS011;1213;43.206;27.922;2024-02-23T10:09:34;17.17;;;12.50;;
2404;SDS011;1213;43.206;27.922;2024-02-23T10:12:02;15.30;;;11.67;;
2404;SDS011;1213;43.206;27.922;2024-02-23T10:14:28;17.50;;;11.90;;
2404;SDS011;1213;43.206;27.922;2024-02-23T10:16:53;15.67;;;11.10;;
2404;SDS011;1213;43.206;27.922;2024-02-23T10:19:20;13.43;;;11.30;;
2404;SDS011;1213;43.206;27.922;2024-02-23T10:21:46;13.60;;;11.60;;
2404;SDS011;1213;43.206;27.922;2024-02-23T10:24:12;12.33;;;11.03;;
2404;SDS011;1213;43.206;27.922;2024-02-23T10:26:38;13.93;;;11.40;;
2404;SDS011;1213;43.206;27.922;2024-02-23T10:29:03;16.53;;;12.60;;
2404;SDS011;1213;43.206;27.922;2024-02-23T10:31:30;15.60;;;12.00;;
2404;SDS011;1213;43.206;27.922;2024-02-23T10:34:07;14.70;;;11.07;;
2404;SDS011;1213;43.206;27.922;2024-02-23T10:36:42;12.43;;;11.00;;
2404;SDS011;1213;43.206;27.922;2024-02-23T10:39:08;11.37;;;10.23;;
2404;SDS011;1213;43.206;27.922;2024-02-23T10:41:39;18.73;;;10.97;;
2404;SDS011;1213;43.206;27.922;2024-02-23T10:44:28;15.97;;;12.03;;
2404;SDS011;1213;43.206;27.922;2024-02-23T10:46:55;13.10;;;10.87;;
2404;SDS011;1213;43.206;27.922;2024-02-23T10:49:22;17.63;;;11.43;;
2404;SDS011;1213;43.206;27.922;2024-02-23T10:51:54;13.33;;;11.67;;
2404;SDS011;1213;43.206;27.922;2024-02-23T10:54:21;12.70;;;11.50;;
2404;SDS011;1213;43.206;27.922;2024-02-23T10:56:48;12.83;;;11.27;;
2404;SDS011;1213;43.206;27.922;2024-02-23T10:59:14;14.00;;;12.53;;
2404;SDS011;1213;43.206;27.922;2024-02-23T11:01:44;16.63;;;13.73;;
2404;SDS011;1213;43.206;27.922;2024-02-23T11:04:11;15.83;;;13.23;;
2404;SDS011;1213;43.206;27.922;2024-02-23T11:06:37;17.07;;;12.77;;
2404;SDS011;1213;43.206;27.922;2024-02-23T11:09:06;14.50;;;11.90;;
2404;SDS011;1213;43.206;27.922;2024-02-23T11:11:33;13.33;;;10.80;;
2404;SDS011;1213;43.206;27.922;2024-02-23T11:13:59;14.43;;;11.17;;
2404;SDS011;1213;43.206;27.922;2024-02-23T11:16:33;10.30;;;9.37;;
2404;SDS011;1213;43.206;27.922;2024-02-23T11:19:04;10.87;;;9.87;;
2404;SDS011;1213;43.206;27.922;2024-02-23T11:21:34;11.57;;;10.47;;
2404;SDS011;1213;43.206;27.922;2024-02-23T11:24:06;12.87;;;10.40;;
2404;SDS011;1213;43.206;27.922;2024-02-23T11:26:31;12.33;;;10.60;;
2404;SDS011;1213;43.206;27.922;2024-02-23T11:29:09;15.60;;;13.20;;
2404;SDS011;1213;43.206;27.922;2024-02-23T11:31:36;15.13;;;13.33;;
2404;SDS011;1213;43.206;27.922;2024-02-23T11:34:10;13.60;;;12.13;;
2404;SDS011;1213;43.206;27.922;2024-02-23T11:36:50;15.03;;;13.37;;
2404;SDS011;1213;43.206;27.922;2024-02-23T11:39:17;14.77;;;12.57;;
2404;SDS011;1213;43.206;27.922;2024-02-23T11:41:49;14.50;;;13.00;;
2404;SDS011;1213;43.206;27.922;2024-02-23T11:44:22;13.73;;;12.30;;
2404;SDS011;1213;43.206;27.922;2024-02-23T11:46:49;16.03;;;12.40;;
2404;SDS011;1213;43.206;27.922;2024-02-23T11:49:15;19.03;;;13.67;;
2404;SDS011;1213;43.206;27.922;2024-02-23T11:52:10;17.00;;;13.97;;
2404;SDS011;1213;43.206;27.922;2024-02-23T11:54:36;15.33;;;13.73;;
2404;SDS011;1213;43.206;27.922;2024-02-23T11:57:03;16.90;;;14.70;;
2404;SDS011;1213;43.206;27.922;2024-02-23T11:59:28;16.83;;;15.17;;
2404;SDS011;1213;43.206;27.922;2024-02-23T12:01:54;16.30;;;14.70;;
2404;SDS011;1213;43.206;27.922;2024-02-23T12:04:20;16.90;;;14.27;;
2404;SDS011;1213;43.206;27.922;2024-02-23T12:06:45;15.83;;;14.43;;
2404;SDS011;1213;43.206;27.922;2024-02-23T12:09:12;14.80;;;13.30;;
2404;SDS011;1213;43.206;27.922;2024-02-23T12:11:40;18.00;;;14.17;;
2404;SDS011;1213;43.206;27.922;2024-02-23T12:14:06;16.23;;;14.60;;
2404;SDS011;1213;43.206;27.922;2024-02-23T12:16:34;23.17;;;14.63;;
2404;SDS011;1213;43.206;27.922;2024-02-23T12:19:02;16.37;;;13.83;;
2404;SDS011;1213;43.206;27.922;2024-02-23T12:21:28;16.37;;;14.00;;
2404;SDS011;1213;43.206;27.922;2024-02-23T12:23:54;17.63;;;14.23;;
2404;SDS011;1213;43.206;27.922;2024-02-23T12:26:19;16.47;;;14.73;;
2404;SDS011;1213;43.206;27.922;2024-02-23T12:28:46;19.43;;;16.37;;
2404;SDS011;1213;43.206;27.922;2024-02-23T12:31:11;16.10;;;14.50;;
2404;SDS011;1213;43.206;27.922;2024-02-23T12:33:37;19.03;;;14.87;;
2404;SDS011;1213;43.206;27.922;2024-02-23T12:36:05;17.63;;;15.70;;
2404;SDS011;1213;43.206;27.922;2024-02-23T12:38:31;18.57;;;15.70;;
2404;SDS011;1213;43.206;27.922;2024-02-23T12:40:57;19.83;;;14.67;;
2404;SDS011;1213;43.206;27.922;2024-02-23T12:43:23;15.00;;;12.50;;
2404;SDS011;1213;43.206;27.922;2024-02-23T12:45:54;16.77;;;12.50;;
2404;SDS011;1213;43.206;27.922;2024-02-23T12:48:20;16.50;;;14.80;;
2404;SDS011;1213;43.206;27.922;2024-02-23T12:50:48;18.50;;;15.70;;
2404;SDS011;1213;43.206;27.922;2024-02-23T12:55:56;18.97;;;16.60;;
2404;SDS011;1213;43.206;27.922;2024-02-23T12:58:21;24.47;;;14.63;;
2404;SDS011;1213;43.206;27.922;2024-02-23T13:00:46;20.90;;;14.87;;
2404;SDS011;1213;43.206;27.922;2024-02-23T13:03:12;21.33;;;15.20;;
2404;SDS011;1213;43.206;27.922;2024-02-23T13:05:37;20.83;;;16.00;;
2404;SDS011;1213;43.206;27.922;2024-02-23T13:08:03;23.53;;;16.80;;
2404;SDS011;1213;43.206;27.922;2024-02-23T13:10:28;15.70;;;13.77;;
2404;SDS011;1213;43.206;27.922;2024-02-23T13:12:56;21.17;;;16.60;;
2404;SDS011;1213;43.206;27.922;2024-02-23T13:15:21;18.40;;;15.40;;
2404;SDS011;1213;43.206;27.922;2024-02-23T13:17:46;18.03;;;14.70;;
2404;SDS011;1213;43.206;27.922;2024-02-23T13:20:12;18.07;;;13.80;;
2404;SDS011;1213;43.206;27.922;2024-02-23T13:22:38;15.53;;;13.87;;
2404;SDS011;1213;43.206;27.922;2024-02-23T13:25:03;19.47;;;14.13;;
2404;SDS011;1213;43.206;27.922;2024-02-23T13:27:29;22.57;;;15.00;;
2404;SDS011;1213;43.206;27.922;2024-02-23T13:29:55;17.50;;;14.13;;
2404;SDS011;1213;43.206;27.922;2024-02-23T13:32:20;17.37;;;14.57;;
2404;SDS011;1213;43.206;27.922;2024-02-23T13:34:45;15.40;;;13.20;;
2404;SDS011;1213;43.206;27.922;2024-02-23T13:37:11;16.97;;;14.00;;
2404;SDS011;1213;43.206;27.922;2024-02-23T13:39:37;19.90;;;15.07;;
2404;SDS011;1213;43.206;27.922;2024-02-23T13:42:03;17.37;;;13.60;;
2404;SDS011;1213;43.206;27.922;2024-02-23T13:44:30;22.87;;;14.13;;
2404;SDS011;1213;43.206;27.922;2024-02-23T13:46:56;17.87;;;14.10;;
2404;SDS011;1213;43.206;27.922;2024-02-23T13:49:21;22.13;;;14.20;;
2404;SDS011;1213;43.206;27.922;2024-02-23T13:51:47;14.73;;;12.20;;
2404;SDS011;1213;43.206;27.922;2024-02-23T13:54:13;17.90;;;13.83;;
2404;SDS011;1213;43.206;27.922;2024-02-23T13:56:40;18.50;;;13.53;;
2404;SDS011;1213;43.206;27.922;2024-02-23T13:59:05;14.63;;;12.43;;
2404;SDS011;1213;43.206;27.922;2024-02-23T14:01:31;16.80;;;12.50;;
2404;SDS011;1213;43.206;27.922;2024-02-23T14:03:56;16.80;;;12.47;;
2404;SDS011;1213;43.206;27.922;2024-02-23T14:06:21;17.10;;;11.73;;
2404;SDS011;1213;43.206;27.922;2024-02-23T14:08:47;13.73;;;11.17;;
2404;SDS011;1213;43.206;27.922;2024-02-23T14:11:13;12.13;;;10.73;;
2404;SDS011;1213;43.206;27.922;2024-02-23T14:13:39;13.17;;;10.97;;
2404;SDS011;1213;43.206;27.922;2024-02-23T14:16:06;16.60;;;10.77;;
2404;SDS011;1213;43.206;27.922;2024-02-23T14:18:32;14.60;;;10.70;;
2404;SDS011;1213;43.206;27.922;2024-02-23T14:21:02;18.73;;;12.47;;
2404;SDS011;1213;43.206;27.922;2024-02-23T14:23:29;13.53;;;11.30;;
2404;SDS011;1213;43.206;27.922;2024-02-23T14:25:54;15.50;;;11.33;;
2404;SDS011;1213;43.206;27.922;2024-02-23T14:28:21;20.17;;;14.63;;
2404;SDS011;1213;43.206;27.922;2024-02-23T14:30:46;16.50;;;14.10;;
2404;SDS011;1213;43.206;27.922;2024-02-23T14:33:12;16.03;;;11.60;;